createdAt,value
2017-11-12T00:00:25.857Z,3.60
2017-11-12T00:02:54.143Z,4.70
2017-11-12T00:05:22.442Z,3.90
2017-11-12T00:07:50.923Z,4.50
2017-11-12T00:10:19.197Z,4.00
2017-11-12T00:12:47.465Z,3.80
2017-11-12T00:15:16.089Z,3.60
2017-11-12T00:17:44.353Z,4.23
2017-11-12T00:20:12.587Z,4.60
2017-11-12T00:22:41.612Z,3.80
2017-11-12T00:25:10.346Z,4.90
2017-11-12T00:27:38.894Z,4.90
2017-11-12T00:30:07.161Z,5.80
2017-11-12T00:32:35.397Z,4.90
2017-11-12T00:35:03.961Z,4.30
2017-11-12T00:37:32.328Z,4.37
2017-11-12T00:40:00.581Z,3.67
2017-11-12T00:42:28.842Z,3.93
2017-11-12T00:44:57.083Z,4.17
2017-11-12T00:47:25.716Z,5.10
2017-11-12T00:49:53.980Z,4.23
2017-11-12T00:52:22.232Z,4.20
2017-11-12T00:54:50.874Z,5.80
2017-11-12T00:57:19.121Z,4.20
2017-11-12T00:59:47.364Z,4.53
2017-11-12T01:02:15.735Z,4.50
2017-11-12T01:04:44.040Z,4.27
2017-11-12T01:07:12.289Z,4.37
2017-11-12T01:09:40.921Z,4.53
2017-11-12T01:12:09.197Z,4.93
2017-11-12T01:14:37.678Z,4.00
2017-11-12T01:17:05.909Z,4.50
2017-11-12T01:19:34.629Z,4.03
2017-11-12T01:22:02.870Z,4.33
2017-11-12T01:24:31.497Z,3.80
2017-11-12T01:26:59.772Z,4.10
2017-11-12T01:29:28.390Z,4.37
2017-11-12T01:31:56.632Z,4.73
2017-11-12T01:34:24.885Z,4.53
2017-11-12T01:36:53.123Z,4.07
2017-11-12T01:39:21.396Z,4.30
2017-11-12T01:41:49.628Z,4.50
2017-11-12T01:44:17.878Z,4.00
2017-11-12T01:46:46.554Z,4.33
2017-11-12T01:49:15.189Z,3.93
2017-11-12T01:51:43.422Z,4.13
2017-11-12T01:54:11.667Z,5.37
2017-11-12T01:56:39.914Z,5.00
2017-11-12T01:59:08.211Z,4.10
2017-11-12T02:01:36.451Z,4.30
2017-11-12T02:04:04.715Z,5.30
2017-11-12T02:06:32.985Z,4.00
2017-11-12T02:09:01.226Z,4.20
2017-11-12T02:11:29.455Z,4.00
2017-11-12T02:13:57.707Z,3.70
2017-11-12T02:16:25.954Z,4.20
2017-11-12T02:18:54.205Z,3.60
2017-11-12T02:21:22.465Z,4.00
2017-11-12T02:23:50.702Z,4.03
2017-11-12T02:26:18.950Z,3.90
2017-11-12T02:28:47.191Z,5.60
2017-11-12T02:31:15.425Z,4.10
2017-11-12T02:33:43.682Z,4.03
2017-11-12T02:36:11.953Z,3.93
2017-11-12T02:38:40.192Z,5.23
2017-11-12T02:41:08.425Z,4.83
2017-11-12T02:43:37.133Z,3.67
2017-11-12T02:46:05.366Z,3.70
2017-11-12T02:48:33.627Z,3.87
2017-11-12T02:51:01.911Z,3.70
2017-11-12T02:53:30.158Z,3.90
2017-11-12T02:55:58.404Z,3.90
2017-11-12T02:58:26.944Z,3.53
2017-11-12T03:00:55.185Z,5.03
2017-11-12T03:03:23.414Z,4.63
2017-11-12T03:05:52.049Z,4.60
2017-11-12T03:08:20.365Z,4.13
2017-11-12T03:10:49.441Z,5.80
2017-11-12T03:13:17.681Z,4.37
2017-11-12T03:15:45.929Z,4.43
2017-11-12T03:18:14.561Z,4.23
2017-11-12T03:20:42.808Z,4.23
2017-11-12T03:23:11.065Z,4.50
2017-11-12T03:25:39.723Z,4.73
2017-11-12T03:28:07.968Z,4.10
2017-11-12T03:30:36.223Z,5.00
2017-11-12T03:33:04.541Z,4.50
2017-11-12T03:35:32.767Z,4.83
2017-11-12T03:38:00.997Z,4.80
2017-11-12T03:40:29.258Z,5.60
2017-11-12T03:42:57.494Z,4.40
2017-11-12T03:45:25.742Z,4.00
2017-11-12T03:47:54.515Z,4.93
2017-11-12T03:50:22.763Z,4.00
2017-11-12T03:52:51.000Z,4.37
2017-11-12T03:55:19.365Z,4.20
2017-11-12T03:57:47.998Z,5.63
2017-11-12T04:00:16.227Z,5.20
2017-11-12T04:02:44.874Z,5.40
2017-11-12T04:05:13.115Z,5.77
2017-11-12T04:07:41.347Z,5.40
2017-11-12T04:10:09.633Z,5.67
2017-11-12T04:12:38.269Z,5.53
2017-11-12T04:15:06.515Z,5.10
2017-11-12T04:17:34.766Z,5.30
2017-11-12T04:20:03.401Z,5.60
2017-11-12T04:22:31.641Z,5.40
2017-11-12T04:25:00.379Z,5.40
2017-11-12T04:27:28.657Z,4.90
2017-11-12T04:29:56.893Z,5.50
2017-11-12T04:32:25.170Z,5.70
2017-11-12T04:34:53.411Z,6.30
2017-11-12T04:37:21.654Z,6.10
2017-11-12T04:39:50.145Z,5.50
2017-11-12T04:42:18.382Z,8.20
2017-11-12T04:44:46.654Z,6.03
2017-11-12T04:47:14.998Z,6.57
2017-11-12T04:49:43.617Z,5.73
2017-11-12T04:52:11.881Z,6.80
2017-11-12T04:54:40.138Z,6.47
2017-11-12T04:57:08.429Z,6.00
2017-11-12T04:59:36.972Z,6.10
2017-11-12T05:02:05.239Z,6.10
2017-11-12T05:04:33.483Z,5.30
2017-11-12T05:07:01.757Z,6.57
2017-11-12T05:09:30.014Z,6.03
2017-11-12T05:11:58.257Z,5.90
2017-11-12T05:14:26.511Z,5.90
2017-11-12T05:16:54.765Z,6.23
2017-11-12T05:19:23.018Z,5.90
2017-11-12T05:21:51.689Z,5.80
2017-11-12T05:24:19.913Z,6.27
2017-11-12T05:26:48.164Z,5.57
2017-11-12T05:29:16.409Z,6.00
2017-11-12T05:31:45.039Z,6.03
2017-11-12T05:34:13.336Z,6.27
2017-11-12T05:36:41.569Z,7.43
2017-11-12T05:39:09.813Z,6.20
2017-11-12T05:41:38.489Z,7.73
2017-11-12T05:44:06.745Z,6.20
2017-11-12T05:46:35.418Z,7.20
2017-11-12T05:49:03.685Z,5.90
2017-11-12T05:51:31.957Z,6.13
2017-11-12T05:54:00.196Z,7.47
2017-11-12T05:56:28.828Z,6.37
2017-11-12T05:58:57.080Z,6.30
2017-11-12T06:01:25.321Z,6.60
2017-11-12T06:03:53.554Z,5.30
2017-11-12T06:06:21.820Z,5.60
2017-11-12T06:08:50.085Z,5.60
2017-11-12T06:11:18.340Z,5.53
2017-11-12T06:13:47.039Z,6.10
2017-11-12T06:16:15.277Z,6.40
2017-11-12T06:18:43.533Z,7.67
2017-11-12T06:21:11.821Z,6.30
2017-11-12T06:23:40.077Z,7.43
2017-11-12T06:26:08.307Z,6.83
2017-11-12T06:28:36.582Z,6.73
2017-11-12T06:31:05.223Z,8.90
2017-11-12T06:33:33.510Z,6.73
2017-11-12T06:36:01.768Z,7.50
2017-11-12T06:38:29.990Z,6.50
2017-11-12T06:40:58.668Z,6.80
2017-11-12T06:43:27.297Z,5.90
2017-11-12T06:45:55.630Z,6.50
2017-11-12T06:48:24.283Z,5.70
2017-11-12T06:50:52.769Z,6.63
2017-11-12T06:53:22.070Z,5.80
2017-11-12T06:55:50.308Z,5.50
2017-11-12T06:58:18.549Z,5.93
2017-11-12T07:00:47.890Z,5.43
2017-11-12T07:03:16.123Z,5.87
2017-11-12T07:05:44.763Z,7.10
2017-11-12T07:08:13.012Z,5.90
2017-11-12T07:10:41.257Z,5.50
2017-11-12T07:13:09.510Z,6.17
2017-11-12T07:15:37.847Z,6.67
2017-11-12T07:18:06.088Z,7.60
2017-11-12T07:20:34.753Z,6.17
2017-11-12T07:23:03.006Z,6.20
2017-11-12T07:25:31.256Z,5.53
2017-11-12T07:27:59.507Z,6.00
2017-11-12T07:30:28.140Z,5.33
2017-11-12T07:32:56.374Z,7.00
2017-11-12T07:35:25.023Z,6.83
2017-11-12T07:37:53.258Z,5.07
2017-11-12T07:40:22.010Z,5.90
2017-11-12T07:42:50.299Z,5.77
2017-11-12T07:45:18.536Z,5.77
2017-11-12T07:47:46.815Z,5.17
2017-11-12T07:50:15.059Z,5.40
2017-11-12T07:52:43.306Z,4.63
2017-11-12T07:55:11.582Z,4.90
2017-11-12T07:57:39.822Z,4.73
2017-11-12T08:00:08.064Z,5.17
2017-11-12T08:02:36.344Z,5.97
2017-11-12T08:05:04.594Z,5.40
2017-11-12T08:07:33.115Z,4.73
2017-11-12T08:10:01.487Z,4.40
2017-11-12T08:12:29.727Z,5.07
2017-11-12T08:14:58.008Z,6.20
2017-11-12T08:17:26.530Z,3.70
2017-11-12T08:19:54.813Z,3.37
2017-11-12T08:22:23.065Z,4.20
2017-11-12T08:24:51.319Z,3.80
2017-11-12T08:27:19.602Z,4.60
2017-11-12T08:29:47.832Z,3.70
2017-11-12T08:32:16.685Z,4.23
2017-11-12T08:34:44.963Z,4.63
2017-11-12T08:37:13.470Z,4.00
2017-11-12T08:39:41.714Z,4.10
2017-11-12T08:42:09.972Z,3.77
2017-11-12T08:44:38.215Z,3.90
2017-11-12T08:47:06.490Z,3.10
2017-11-12T08:49:35.125Z,2.87
2017-11-12T08:52:03.386Z,4.30
2017-11-12T08:54:31.656Z,4.07
2017-11-12T08:56:59.902Z,4.30
2017-11-12T08:59:28.655Z,2.80
2017-11-12T09:01:56.937Z,3.50
2017-11-12T09:04:25.169Z,3.90
2017-11-12T09:06:54.134Z,2.70
2017-11-12T09:09:22.997Z,3.10
2017-11-12T09:11:51.309Z,2.80
2017-11-12T09:14:19.985Z,2.93
2017-11-12T09:16:48.669Z,3.20
2017-11-12T09:19:17.289Z,3.60
2017-11-12T09:21:45.870Z,3.43
2017-11-12T09:24:14.188Z,2.60
2017-11-12T09:26:42.425Z,3.67
2017-11-12T09:29:10.677Z,2.70
2017-11-12T09:31:39.320Z,3.10
2017-11-12T09:34:07.561Z,3.00
2017-11-12T09:36:35.802Z,3.33
2017-11-12T09:39:04.083Z,2.70
2017-11-12T09:41:32.359Z,2.70
2017-11-12T09:44:00.680Z,2.50
2017-11-12T09:46:28.976Z,3.33
2017-11-12T09:48:57.226Z,3.27
2017-11-12T09:51:25.740Z,3.60
2017-11-12T09:53:54.013Z,2.80
2017-11-12T09:56:22.270Z,2.73
2017-11-12T09:58:50.514Z,2.70
2017-11-12T10:01:18.806Z,2.90
2017-11-12T10:03:47.146Z,2.63
2017-11-12T10:06:15.888Z,4.73
2017-11-12T10:08:44.150Z,4.33
2017-11-12T10:11:12.401Z,4.23
2017-11-12T10:13:40.668Z,5.83
2017-11-12T10:16:09.746Z,5.60
2017-11-12T10:18:38.415Z,5.30
2017-11-12T10:21:06.806Z,5.77
2017-11-12T10:23:35.187Z,4.37
2017-11-12T10:26:03.858Z,5.07
2017-11-12T10:28:32.156Z,5.40
2017-11-12T10:31:00.785Z,5.60
2017-11-12T10:33:29.043Z,6.03
2017-11-12T10:35:57.303Z,5.60
2017-11-12T10:38:25.631Z,5.57
2017-11-12T10:40:54.036Z,4.37
2017-11-12T10:43:22.676Z,4.73
2017-11-12T10:45:51.392Z,4.63
2017-11-12T10:48:20.817Z,4.60
2017-11-12T10:50:49.453Z,4.63
2017-11-12T10:53:17.729Z,3.90
2017-11-12T10:55:46.086Z,4.17
2017-11-12T10:58:14.333Z,4.50
2017-11-12T11:00:42.974Z,3.10
2017-11-12T11:03:11.271Z,4.10
2017-11-12T11:05:39.927Z,3.20
2017-11-12T11:08:08.177Z,4.00
2017-11-12T11:10:36.466Z,2.63
2017-11-12T11:13:05.270Z,3.50
2017-11-12T11:15:33.528Z,3.03
2017-11-12T11:18:02.050Z,4.03
2017-11-12T11:20:30.330Z,3.77
2017-11-12T11:22:58.577Z,2.80
2017-11-12T11:25:27.223Z,2.70
2017-11-12T11:27:55.512Z,4.40
2017-11-12T11:30:23.770Z,2.80
2017-11-12T11:32:52.090Z,2.67
2017-11-12T11:35:20.353Z,2.47
2017-11-12T11:37:48.757Z,2.80
2017-11-12T11:40:17.100Z,3.70
2017-11-12T11:42:45.659Z,3.40
2017-11-12T11:45:13.920Z,3.27
2017-11-12T11:47:42.575Z,3.10
2017-11-12T11:50:10.819Z,3.00
2017-11-12T11:52:39.089Z,3.43
2017-11-12T11:55:07.378Z,3.10
2017-11-12T11:57:35.610Z,3.50
2017-11-12T12:00:03.897Z,2.70
2017-11-12T12:02:32.535Z,2.73
2017-11-12T12:05:00.777Z,3.80
2017-11-12T12:07:29.033Z,3.70
2017-11-12T12:09:57.691Z,2.80
2017-11-12T12:12:25.956Z,3.10
2017-11-12T12:14:54.207Z,2.70
2017-11-12T12:17:22.471Z,3.53
2017-11-12T12:19:50.721Z,3.13
2017-11-12T12:22:18.998Z,2.40
2017-11-12T12:24:47.280Z,3.70
2017-11-12T12:27:15.521Z,3.20
2017-11-12T12:29:43.794Z,3.23
2017-11-12T12:32:12.050Z,3.20
2017-11-12T12:34:40.287Z,3.17
2017-11-12T12:37:08.555Z,2.40
2017-11-12T12:39:37.287Z,3.00
2017-11-12T12:42:05.554Z,2.67
2017-11-12T12:44:33.792Z,2.97
2017-11-12T12:47:02.605Z,3.00
2017-11-12T12:49:30.853Z,3.03
2017-11-12T12:51:59.507Z,3.20
2017-11-12T12:54:27.785Z,3.63
2017-11-12T12:56:56.045Z,3.73
2017-11-12T12:59:24.303Z,2.80
2017-11-12T13:01:52.585Z,3.53
2017-11-12T13:04:20.871Z,3.43
2017-11-12T13:06:49.137Z,3.47
2017-11-12T13:09:17.450Z,3.83
2017-11-12T13:11:45.763Z,3.57
2017-11-12T13:14:14.001Z,3.17
2017-11-12T13:16:42.314Z,4.70
2017-11-12T13:19:10.597Z,7.30
2017-11-12T13:21:38.892Z,23.17
2017-11-12T13:24:07.154Z,16.00
2017-11-12T13:26:35.477Z,21.20
2017-11-12T13:29:03.927Z,10.50
2017-11-12T13:31:32.218Z,5.60
2017-11-12T13:34:00.504Z,17.80
2017-11-12T13:36:28.852Z,9.10
2017-11-12T13:38:57.122Z,8.50
2017-11-12T13:41:25.393Z,7.47
2017-11-12T13:43:53.669Z,8.07
2017-11-12T13:46:21.931Z,7.07
2017-11-12T13:48:50.188Z,6.60
2017-11-12T13:51:18.553Z,5.83
2017-11-12T13:53:46.951Z,5.20
2017-11-12T13:56:15.627Z,7.33
2017-11-12T13:58:43.873Z,5.27
2017-11-12T14:01:12.201Z,6.23
2017-11-12T14:03:40.533Z,5.40
2017-11-12T14:06:09.234Z,5.30
2017-11-12T14:08:37.533Z,5.13
2017-11-12T14:11:06.178Z,4.10
2017-11-12T14:13:34.421Z,4.80
2017-11-12T14:16:02.718Z,4.63
2017-11-12T14:18:32.105Z,5.00
2017-11-12T14:21:00.343Z,4.73
2017-11-12T14:23:28.996Z,4.83
2017-11-12T14:25:57.249Z,4.10
2017-11-12T14:28:25.515Z,4.00
2017-11-12T14:30:54.404Z,4.60
2017-11-12T14:33:22.642Z,4.27
2017-11-12T14:35:50.996Z,4.87
2017-11-12T14:38:19.225Z,4.20
2017-11-12T14:40:47.475Z,3.90
2017-11-12T14:43:16.143Z,4.10
2017-11-12T14:45:44.407Z,3.93
2017-11-12T14:48:12.677Z,3.30
2017-11-12T14:50:41.467Z,3.83
2017-11-12T14:53:09.755Z,3.70
2017-11-12T14:55:37.997Z,3.80
2017-11-12T14:58:07.029Z,5.20
2017-11-12T15:00:35.921Z,3.90
2017-11-12T15:03:04.559Z,4.30
2017-11-12T15:05:32.809Z,4.37
2017-11-12T15:08:01.131Z,3.67
2017-11-12T15:10:29.402Z,4.33
2017-11-12T15:12:57.695Z,4.37
2017-11-12T15:15:25.937Z,5.30
2017-11-12T15:17:54.251Z,5.37
2017-11-12T15:20:22.508Z,4.37
2017-11-12T15:22:50.741Z,4.43
2017-11-12T15:25:19.039Z,4.40
2017-11-12T15:27:47.293Z,4.93
2017-11-12T15:30:15.541Z,5.60
2017-11-12T15:32:43.808Z,6.53
2017-11-12T15:35:12.068Z,4.60
2017-11-12T15:37:40.394Z,4.33
2017-11-12T15:40:08.719Z,4.53
2017-11-12T15:42:36.992Z,4.80
2017-11-12T15:45:05.271Z,5.27
2017-11-12T15:47:33.567Z,6.37
2017-11-12T15:50:01.819Z,5.60
2017-11-12T15:52:30.107Z,5.40
2017-11-12T15:54:58.358Z,6.77
2017-11-12T15:57:26.629Z,5.87
2017-11-12T15:59:54.882Z,5.60
2017-11-12T16:02:23.422Z,5.60
2017-11-12T16:04:51.660Z,4.80
2017-11-12T16:07:20.029Z,5.00
2017-11-12T16:09:48.273Z,5.20
2017-11-12T16:12:17.254Z,6.77
2017-11-12T16:14:45.526Z,4.40
2017-11-12T16:17:13.776Z,3.80
2017-11-12T16:19:42.029Z,4.50
2017-11-12T16:22:10.269Z,5.50
2017-11-12T16:24:39.234Z,6.00
2017-11-12T16:27:07.574Z,5.60
2017-11-12T16:29:35.815Z,5.23
2017-11-12T16:32:04.511Z,4.97
2017-11-12T16:34:33.134Z,5.40
2017-11-12T16:37:01.392Z,7.20
2017-11-12T16:39:29.670Z,8.00
2017-11-12T16:41:57.952Z,7.57
2017-11-12T16:44:26.189Z,6.20
2017-11-12T16:46:55.057Z,4.70
2017-11-12T16:49:23.302Z,6.53
2017-11-12T16:51:51.542Z,6.07
2017-11-12T16:54:20.336Z,5.90
2017-11-12T16:56:48.589Z,7.20
2017-11-12T16:59:17.257Z,7.80
2017-11-12T17:01:45.513Z,7.93
2017-11-12T17:04:14.013Z,9.30
2017-11-12T17:06:43.157Z,8.93
2017-11-12T17:09:11.409Z,8.60
2017-11-12T17:11:40.055Z,9.10
2017-11-12T17:14:08.877Z,9.97
2017-11-12T17:16:37.538Z,9.33
2017-11-12T17:19:05.789Z,9.20
2017-11-12T17:21:34.485Z,8.33
2017-11-12T17:24:02.817Z,10.00
2017-11-12T17:26:31.465Z,11.00
2017-11-12T17:29:00.140Z,11.80
2017-11-12T17:31:28.404Z,13.30
2017-11-12T17:33:56.674Z,14.57
2017-11-12T17:36:24.963Z,13.63
2017-11-12T17:38:53.230Z,14.93
2017-11-12T17:41:21.510Z,13.77
2017-11-12T17:43:49.818Z,13.50
2017-11-12T17:46:18.476Z,12.60
2017-11-12T17:48:46.726Z,12.03
2017-11-12T17:51:15.408Z,12.90
2017-11-12T17:53:43.722Z,12.77
2017-11-12T17:56:12.482Z,13.20
2017-11-12T17:58:40.759Z,12.93
2017-11-12T18:01:09.030Z,13.43
2017-11-12T18:03:37.317Z,14.00
2017-11-12T18:06:05.610Z,12.67
2017-11-12T18:08:33.868Z,13.77
2017-11-12T18:11:02.479Z,12.50
2017-11-12T18:13:30.723Z,12.37
2017-11-12T18:15:59.695Z,12.03
2017-11-12T18:18:27.986Z,12.63
2017-11-12T18:20:56.310Z,12.13
2017-11-12T18:23:24.890Z,12.73
2017-11-12T18:25:53.200Z,22.80
2017-11-12T18:28:21.510Z,11.23
2017-11-12T18:30:49.978Z,11.93
2017-11-12T18:33:18.267Z,12.10
2017-11-12T18:35:46.559Z,12.10
2017-11-12T18:38:14.857Z,11.13
2017-11-12T18:40:43.163Z,11.33
2017-11-12T18:43:11.834Z,11.70
2017-11-12T18:45:40.561Z,12.37
2017-11-12T18:48:08.806Z,11.27
2017-11-12T18:50:37.920Z,11.47
2017-11-12T18:53:06.194Z,11.33
2017-11-12T18:55:37.911Z,12.20
2017-11-12T18:58:16.196Z,11.80
2017-11-12T19:00:45.650Z,12.63
2017-11-12T19:06:20.081Z,12.53
2017-11-12T19:08:48.489Z,13.00
2017-11-12T19:11:16.876Z,12.10
2017-11-12T19:13:45.273Z,11.70
2017-11-12T19:16:13.710Z,12.07
2017-11-12T19:18:42.669Z,12.13
2017-11-12T19:21:14.137Z,12.40
2017-11-12T19:23:43.102Z,13.20
2017-11-12T19:26:14.627Z,12.30
2017-11-12T19:28:53.904Z,12.67
2017-11-12T19:31:22.391Z,11.43
2017-11-12T19:33:51.265Z,12.03
2017-11-12T19:36:19.904Z,12.60
2017-11-12T19:38:48.621Z,12.93
2017-11-12T19:41:17.457Z,11.47
2017-11-12T19:43:46.803Z,12.80
2017-11-12T19:46:15.525Z,12.80
2017-11-12T19:48:44.442Z,13.60
2017-11-12T19:51:13.102Z,12.90
2017-11-12T19:53:41.734Z,13.10
2017-11-12T19:56:10.552Z,12.90
2017-11-12T19:58:39.305Z,11.40
2017-11-12T20:01:07.925Z,13.93
2017-11-12T20:03:37.156Z,12.33
2017-11-12T20:06:05.801Z,12.33
2017-11-12T20:08:34.673Z,13.37
2017-11-12T20:11:03.240Z,12.47
2017-11-12T20:13:31.841Z,12.40
2017-11-12T20:16:00.395Z,12.37
2017-11-12T20:18:29.358Z,12.27
2017-11-12T20:20:58.336Z,11.70
2017-11-12T20:23:26.812Z,11.90
2017-11-12T20:25:55.224Z,13.40
2017-11-12T20:28:23.619Z,11.97
2017-11-12T20:30:51.985Z,13.23
2017-11-12T20:33:20.302Z,12.30
2017-11-12T20:35:48.606Z,11.93
2017-11-12T20:38:16.894Z,9.80
2017-11-12T20:40:45.669Z,10.83
2017-11-12T20:43:13.965Z,10.20
2017-11-12T20:45:42.631Z,9.70
2017-11-12T20:48:10.902Z,7.47
2017-11-12T20:50:39.153Z,9.93
2017-11-12T20:53:07.425Z,9.50
2017-11-12T20:55:35.671Z,9.77
2017-11-12T20:58:04.335Z,9.40
2017-11-12T21:00:39.437Z,9.60
2017-11-12T21:03:07.686Z,11.87
2017-11-12T21:05:37.740Z,10.03
2017-11-12T21:08:06.056Z,13.90
2017-11-12T21:10:34.721Z,12.30
2017-11-12T21:13:03.471Z,12.80
2017-11-12T21:15:31.726Z,9.23
2017-11-12T21:17:59.983Z,8.80
2017-11-12T21:20:34.162Z,12.30
2017-11-12T21:23:08.196Z,11.40
2017-11-12T21:25:36.477Z,8.20
2017-11-12T21:28:08.225Z,11.83
2017-11-12T21:30:37.819Z,11.70
2017-11-12T21:33:21.855Z,11.97
2017-11-12T21:38:54.796Z,10.27
2017-11-12T21:41:23.453Z,11.33
2017-11-12T21:43:51.714Z,12.47
2017-11-12T21:46:19.957Z,13.20
2017-11-12T21:48:48.237Z,12.30
2017-11-12T21:51:16.504Z,14.43
2017-11-12T21:53:45.142Z,17.13
2017-11-12T21:56:13.384Z,12.40
2017-11-12T21:58:41.655Z,12.60
2017-11-12T22:01:09.890Z,14.83
2017-11-12T22:03:38.556Z,13.00
2017-11-12T22:06:06.883Z,12.50
2017-11-12T22:08:35.109Z,10.97
2017-11-12T22:11:03.350Z,12.50
2017-11-12T22:13:31.600Z,12.90
2017-11-12T22:15:59.843Z,13.97
2017-11-12T22:18:28.605Z,13.30
2017-11-12T22:20:56.920Z,13.37
2017-11-12T22:23:25.194Z,12.40
2017-11-12T22:25:53.897Z,11.47
2017-11-12T22:28:22.159Z,12.67
2017-11-12T22:30:50.802Z,12.17
2017-11-12T22:33:19.110Z,30.20
2017-11-12T22:35:47.338Z,14.80
2017-11-12T22:38:15.594Z,14.83
2017-11-12T22:40:43.854Z,13.40
2017-11-12T22:43:12.105Z,14.30
2017-11-12T22:45:40.406Z,13.80
2017-11-12T22:48:08.657Z,12.43
2017-11-12T22:50:36.921Z,12.77
2017-11-12T22:53:05.230Z,12.83
2017-11-12T22:55:33.861Z,13.37
2017-11-12T22:58:02.130Z,13.30
2017-11-12T23:00:30.378Z,13.97
2017-11-12T23:02:58.642Z,13.70
2017-11-12T23:05:27.320Z,14.50
2017-11-12T23:07:56.176Z,13.73
2017-11-12T23:10:24.566Z,14.70
2017-11-12T23:12:52.814Z,13.53
2017-11-12T23:15:21.073Z,13.10
2017-11-12T23:17:50.432Z,13.90
2017-11-12T23:20:19.371Z,14.07
2017-11-12T23:22:47.642Z,13.63
2017-11-12T23:25:16.017Z,13.73
2017-11-12T23:27:44.269Z,14.10
2017-11-12T23:30:13.013Z,14.33
2017-11-12T23:32:41.410Z,14.80
2017-11-12T23:35:09.668Z,12.93
2017-11-12T23:37:37.911Z,13.57
2017-11-12T23:40:07.277Z,13.73
2017-11-12T23:42:35.989Z,12.30
2017-11-12T23:45:04.348Z,12.90
2017-11-12T23:47:32.993Z,12.47
2017-11-12T23:50:01.302Z,10.60
2017-11-12T23:52:29.977Z,9.27
2017-11-12T23:54:58.232Z,9.00
2017-11-12T23:57:26.494Z,9.77
2017-11-12T23:59:54.733Z,10.70
